createdAt,value
2019-03-18T00:00:31.869Z,77.08
2019-03-18T00:03:02.224Z,77.11
2019-03-18T00:05:31.987Z,77.21
2019-03-18T00:08:01.645Z,77.17
2019-03-18T00:10:31.392Z,77.22
2019-03-18T00:13:01.126Z,77.26
2019-03-18T00:15:30.894Z,77.05
2019-03-18T00:18:00.576Z,77.29
2019-03-18T00:20:30.343Z,77.29
2019-03-18T00:23:00.129Z,77.58
2019-03-18T00:25:29.896Z,77.23
2019-03-18T00:27:59.569Z,77.64
2019-03-18T00:30:29.339Z,77.91
2019-03-18T00:32:59.224Z,77.80
2019-03-18T00:35:28.952Z,77.74
2019-03-18T00:37:58.673Z,77.71
2019-03-18T00:40:28.503Z,77.94
2019-03-18T00:42:58.291Z,77.65
2019-03-18T00:45:28.039Z,77.47
2019-03-18T00:47:57.826Z,77.81
2019-03-18T00:50:27.530Z,77.77
2019-03-18T00:52:57.302Z,77.63
2019-03-18T00:55:26.938Z,77.85
2019-03-18T00:57:56.685Z,77.68
2019-03-18T01:00:26.523Z,77.61
2019-03-18T01:02:56.201Z,77.78
2019-03-18T01:05:26.024Z,77.77
2019-03-18T01:07:55.793Z,78.20
2019-03-18T01:10:25.496Z,77.96
2019-03-18T01:12:55.196Z,77.91
2019-03-18T01:15:28.266Z,78.05
2019-03-18T01:17:56.455Z,78.39
2019-03-18T01:20:26.102Z,78.70
2019-03-18T01:22:55.893Z,78.87
2019-03-18T01:25:25.678Z,78.57
2019-03-18T01:27:55.339Z,78.35
2019-03-18T01:30:25.130Z,78.32
2019-03-18T01:32:54.756Z,78.51
2019-03-18T01:35:24.528Z,78.65
2019-03-18T01:37:54.277Z,78.68
2019-03-18T01:40:24.037Z,78.72
2019-03-18T01:42:53.736Z,78.36
2019-03-18T01:45:23.506Z,78.21
2019-03-18T01:47:53.173Z,78.43
2019-03-18T01:50:22.868Z,78.26
2019-03-18T01:52:52.518Z,78.39
2019-03-18T01:55:22.348Z,78.46
2019-03-18T01:57:51.997Z,78.49
2019-03-18T02:00:21.635Z,78.81
2019-03-18T02:02:52.059Z,78.63
2019-03-18T02:05:21.782Z,78.64
2019-03-18T02:07:51.552Z,78.72
2019-03-18T02:10:21.344Z,78.84
2019-03-18T02:12:51.120Z,79.30
2019-03-18T02:15:20.933Z,79.17
2019-03-18T02:17:50.645Z,79.10
2019-03-18T02:20:20.414Z,78.88
2019-03-18T02:22:50.259Z,78.74
2019-03-18T02:25:20.000Z,78.46
2019-03-18T02:27:49.753Z,78.57
2019-03-18T02:30:20.609Z,78.39
2019-03-18T02:32:50.335Z,78.36
2019-03-18T02:35:20.213Z,78.18
2019-03-18T02:37:49.859Z,78.47
2019-03-18T02:40:19.618Z,78.25
2019-03-18T02:42:49.286Z,77.81
2019-03-18T02:45:18.979Z,77.90
2019-03-18T02:47:48.825Z,77.76
2019-03-18T02:50:18.496Z,77.43
2019-03-18T02:52:48.191Z,77.15
2019-03-18T02:55:17.845Z,77.70
2019-03-18T02:57:47.540Z,78.32
2019-03-18T03:00:17.428Z,79.04
2019-03-18T03:02:47.255Z,79.57
2019-03-18T03:05:17.165Z,80.29
2019-03-18T03:07:46.876Z,80.99
2019-03-18T03:10:16.827Z,80.96
2019-03-18T03:12:46.525Z,81.13
2019-03-18T03:15:16.324Z,81.10
2019-03-18T03:17:46.044Z,81.31
2019-03-18T03:20:15.889Z,81.73
2019-03-18T03:22:45.575Z,82.16
2019-03-18T03:25:15.302Z,82.06
2019-03-18T03:27:45.013Z,82.11
2019-03-18T03:30:16.102Z,82.39
2019-03-18T03:32:45.911Z,82.56
2019-03-18T03:35:15.884Z,82.71
2019-03-18T03:37:45.630Z,83.02
2019-03-18T03:40:15.643Z,82.99
2019-03-18T03:42:45.728Z,82.92
2019-03-18T03:45:16.092Z,83.06
2019-03-18T03:47:45.923Z,83.09
2019-03-18T03:50:16.304Z,83.16
2019-03-18T03:52:46.184Z,83.24
2019-03-18T03:55:16.013Z,83.21
2019-03-18T03:57:45.783Z,83.33
2019-03-18T04:00:17.615Z,83.38
2019-03-18T04:02:47.556Z,83.38
2019-03-18T04:05:17.405Z,83.03
2019-03-18T04:07:47.120Z,83.22
2019-03-18T04:10:17.093Z,83.18
2019-03-18T04:12:46.781Z,83.25
2019-03-18T04:15:17.013Z,83.15
2019-03-18T04:17:46.881Z,83.43
2019-03-18T04:20:20.214Z,83.37
2019-03-18T04:22:49.919Z,83.62
2019-03-18T04:25:19.666Z,83.51
2019-03-18T04:27:49.488Z,83.32
2019-03-18T04:30:19.322Z,83.67
2019-03-18T04:32:49.032Z,83.69
2019-03-18T04:35:18.751Z,83.88
2019-03-18T04:37:48.413Z,83.78
2019-03-18T04:40:18.100Z,84.42
2019-03-18T04:42:47.755Z,84.85
2019-03-18T04:45:17.519Z,84.94
2019-03-18T04:47:47.240Z,85.10
2019-03-18T04:50:17.009Z,84.80
2019-03-18T04:52:46.646Z,85.10
2019-03-18T04:55:16.419Z,85.25
2019-03-18T04:57:46.081Z,84.90
2019-03-18T05:00:16.076Z,84.97
2019-03-18T05:02:45.704Z,84.51
2019-03-18T05:05:15.484Z,84.45
2019-03-18T05:07:45.294Z,84.47
2019-03-18T05:10:15.048Z,84.77
2019-03-18T05:12:46.263Z,84.97
2019-03-18T05:15:16.304Z,85.08
2019-03-18T05:17:46.297Z,85.19
2019-03-18T05:20:16.077Z,85.13
2019-03-18T05:22:45.858Z,85.05
2019-03-18T05:25:15.518Z,84.67
2019-03-18T05:27:45.310Z,84.89
2019-03-18T05:30:15.688Z,85.17
2019-03-18T05:32:45.374Z,85.09
2019-03-18T05:35:15.052Z,85.18
2019-03-18T05:37:45.047Z,85.54
2019-03-18T05:40:14.837Z,85.85
2019-03-18T05:42:44.558Z,86.05
2019-03-18T05:45:14.416Z,85.99
2019-03-18T05:47:44.114Z,86.02
2019-03-18T05:50:14.239Z,86.00
2019-03-18T05:52:43.950Z,85.74
2019-03-18T05:55:13.831Z,85.74
2019-03-18T05:57:43.539Z,85.85
2019-03-18T06:00:14.961Z,85.82
2019-03-18T06:02:47.016Z,85.93
2019-03-18T06:05:16.601Z,85.95
2019-03-18T06:07:46.289Z,86.10
2019-03-18T06:10:16.027Z,86.24
2019-03-18T06:12:45.740Z,86.25
2019-03-18T06:15:15.502Z,85.90
2019-03-18T06:17:52.391Z,85.52
2019-03-18T06:20:16.922Z,85.10
2019-03-18T06:22:46.720Z,84.49
2019-03-18T06:25:16.434Z,84.03
2019-03-18T06:27:46.240Z,84.17
2019-03-18T06:30:17.857Z,84.50
2019-03-18T06:32:47.562Z,84.48
2019-03-18T06:35:20.248Z,84.50
2019-03-18T06:37:48.668Z,84.69
2019-03-18T06:40:18.481Z,84.58
2019-03-18T06:42:48.185Z,84.39
2019-03-18T06:45:17.945Z,83.65
2019-03-18T06:47:47.869Z,83.43
2019-03-18T06:50:17.562Z,82.99
2019-03-18T06:52:47.238Z,82.30
2019-03-18T06:55:16.978Z,82.18
2019-03-18T06:57:46.750Z,81.48
2019-03-18T07:00:17.649Z,81.76
2019-03-18T07:02:47.343Z,81.81
2019-03-18T07:05:17.237Z,82.12
2019-03-18T07:07:47.045Z,82.46
2019-03-18T07:10:16.778Z,82.65
2019-03-18T07:12:46.649Z,82.30
2019-03-18T07:15:16.348Z,82.09
2019-03-18T07:17:46.178Z,81.71
2019-03-18T07:20:16.220Z,81.67
2019-03-18T07:22:45.913Z,81.29
2019-03-18T07:25:15.628Z,81.66
2019-03-18T07:27:45.775Z,81.81
2019-03-18T07:30:16.391Z,82.59
2019-03-18T07:32:46.067Z,82.26
2019-03-18T07:35:15.850Z,81.66
2019-03-18T07:37:45.604Z,81.38
2019-03-18T07:40:16.970Z,81.15
2019-03-18T07:42:46.699Z,80.01
2019-03-18T07:45:16.532Z,79.72
2019-03-18T07:47:46.288Z,79.32
2019-03-18T07:50:16.801Z,79.21
2019-03-18T07:52:46.520Z,78.83
2019-03-18T07:55:16.275Z,78.71
2019-03-18T07:57:45.932Z,78.18
2019-03-18T08:00:17.387Z,76.25
2019-03-18T08:02:47.070Z,75.97
2019-03-18T08:05:16.769Z,76.26
2019-03-18T08:07:46.600Z,76.48
2019-03-18T08:10:16.491Z,77.16
2019-03-18T08:12:46.278Z,77.05
2019-03-18T08:15:16.132Z,77.13
2019-03-18T08:17:45.841Z,77.14
2019-03-18T08:20:15.697Z,77.60
2019-03-18T08:22:45.507Z,77.36
2019-03-18T08:25:15.269Z,77.15
2019-03-18T08:27:45.022Z,77.21
2019-03-18T08:30:18.316Z,77.10
2019-03-18T08:32:48.073Z,76.42
2019-03-18T08:35:17.793Z,76.06
2019-03-18T08:37:47.553Z,75.40
2019-03-18T08:40:17.426Z,74.84
2019-03-18T08:42:47.201Z,75.29
2019-03-18T08:45:17.024Z,75.66
2019-03-18T08:47:46.825Z,75.23
2019-03-18T08:50:16.491Z,75.49
2019-03-18T08:52:46.251Z,75.32
2019-03-18T08:55:15.924Z,75.11
2019-03-18T08:57:45.675Z,74.36
2019-03-18T09:00:19.965Z,73.84
2019-03-18T09:02:49.878Z,73.19
2019-03-18T09:05:19.605Z,72.87
2019-03-18T09:07:49.452Z,72.41
2019-03-18T09:10:19.525Z,72.63
2019-03-18T09:12:49.332Z,72.68
2019-03-18T09:15:18.996Z,72.15
2019-03-18T09:17:49.463Z,72.87
2019-03-18T09:20:20.383Z,72.30
2019-03-18T09:22:50.077Z,70.73
2019-03-18T09:25:19.885Z,70.80
2019-03-18T09:27:49.546Z,69.42
2019-03-18T09:30:22.795Z,68.75
2019-03-18T09:32:52.571Z,68.05
2019-03-18T09:35:22.392Z,67.87
2019-03-18T09:37:52.043Z,66.91
2019-03-18T09:40:21.913Z,66.33
2019-03-18T09:42:51.605Z,65.49
2019-03-18T09:45:21.456Z,64.87
2019-03-18T09:47:51.230Z,63.67
2019-03-18T09:50:21.124Z,64.45
2019-03-18T09:52:50.856Z,63.59
2019-03-18T09:55:20.682Z,63.53
2019-03-18T09:57:50.471Z,64.12
2019-03-18T10:00:21.431Z,63.17
2019-03-18T10:02:51.099Z,63.33
2019-03-18T10:05:20.924Z,63.95
2019-03-18T10:07:50.715Z,63.74
2019-03-18T10:10:21.111Z,64.38
2019-03-18T10:12:50.844Z,64.05
2019-03-18T10:15:22.047Z,64.23
2019-03-18T10:17:51.784Z,64.95
2019-03-18T10:20:21.450Z,65.46
2019-03-18T10:22:51.186Z,65.68
2019-03-18T10:25:20.969Z,66.57
2019-03-18T10:27:50.765Z,67.07
2019-03-18T10:30:20.482Z,67.22
2019-03-18T10:32:50.243Z,65.28
2019-03-18T10:35:20.008Z,63.84
2019-03-18T10:37:50.463Z,63.23
2019-03-18T10:40:20.230Z,64.01
2019-03-18T10:42:49.911Z,63.58
2019-03-18T10:45:19.659Z,64.05
2019-03-18T10:47:49.371Z,64.38
2019-03-18T10:50:19.680Z,64.17
2019-03-18T10:52:49.317Z,63.24
2019-03-18T10:55:19.072Z,63.45
2019-03-18T10:57:48.712Z,62.47
2019-03-18T11:00:20.184Z,61.75
2019-03-18T11:02:49.914Z,60.67
2019-03-18T11:05:20.112Z,59.51
2019-03-18T11:07:51.741Z,59.80
2019-03-18T11:10:21.426Z,60.07
2019-03-18T11:12:51.173Z,59.60
2019-03-18T11:15:23.225Z,59.58
2019-03-18T11:17:53.032Z,59.76
2019-03-18T11:20:22.840Z,59.97
2019-03-18T11:22:52.611Z,60.21
2019-03-18T11:25:22.635Z,60.73
2019-03-18T11:27:52.334Z,61.13
2019-03-18T11:30:22.232Z,60.94
2019-03-18T11:32:51.911Z,61.42
2019-03-18T11:35:21.629Z,61.40
2019-03-18T11:37:51.454Z,59.33
2019-03-18T11:40:24.940Z,58.66
2019-03-18T11:42:54.752Z,58.51
2019-03-18T11:45:24.487Z,58.43
2019-03-18T11:47:54.287Z,57.28
2019-03-18T11:50:24.017Z,55.96
2019-03-18T11:52:53.797Z,54.71
2019-03-18T11:55:27.883Z,53.96
2019-03-18T11:57:57.617Z,53.52
2019-03-18T12:00:28.071Z,52.79
2019-03-18T12:02:57.822Z,52.95
2019-03-18T12:05:28.681Z,52.48
2019-03-18T12:07:58.454Z,52.26
2019-03-18T12:10:28.090Z,52.21
2019-03-18T12:12:57.847Z,51.40
2019-03-18T12:15:29.171Z,51.18
2019-03-18T12:17:59.145Z,50.40
2019-03-18T12:20:28.807Z,50.10
2019-03-18T12:22:58.504Z,50.40
2019-03-18T12:25:28.290Z,50.54
2019-03-18T12:27:57.992Z,50.80
2019-03-18T12:30:28.955Z,50.66
2019-03-18T12:32:58.845Z,51.10
2019-03-18T12:35:28.561Z,51.31
2019-03-18T12:37:58.406Z,51.38
2019-03-18T12:40:28.128Z,50.20
2019-03-18T12:42:57.981Z,50.41
2019-03-18T12:45:27.820Z,49.86
2019-03-18T12:47:57.466Z,50.73
2019-03-18T12:50:55.708Z,51.75
2019-03-18T12:52:59.045Z,52.23
2019-03-18T12:55:28.751Z,52.15
2019-03-18T12:57:58.647Z,52.86
2019-03-18T13:00:33.317Z,53.54
2019-03-18T13:03:03.122Z,53.38
2019-03-18T13:05:33.031Z,53.18
2019-03-18T13:08:02.804Z,53.03
2019-03-18T13:10:32.516Z,53.11
2019-03-18T13:13:02.291Z,53.07
2019-03-18T13:15:32.040Z,52.73
2019-03-18T13:18:01.777Z,52.31
2019-03-18T13:20:31.649Z,53.57
2019-03-18T13:23:01.346Z,55.31
2019-03-18T13:25:31.225Z,54.89
2019-03-18T13:28:00.953Z,54.47
2019-03-18T13:30:30.653Z,53.92
2019-03-18T13:33:00.444Z,53.46
2019-03-18T13:35:30.175Z,52.76
2019-03-18T13:38:00.012Z,53.41
2019-03-18T13:40:29.877Z,53.08
2019-03-18T13:43:00.597Z,53.53
2019-03-18T13:45:30.305Z,52.74
2019-03-18T13:48:00.125Z,51.99
2019-03-18T13:50:29.775Z,52.05
2019-03-18T13:52:59.866Z,52.07
2019-03-18T13:55:29.646Z,51.46
2019-03-18T13:57:59.801Z,50.29
2019-03-18T14:00:31.149Z,49.78
2019-03-18T14:03:01.344Z,48.89
2019-03-18T14:05:31.107Z,48.72
2019-03-18T14:08:01.447Z,49.95
2019-03-18T14:10:31.446Z,50.92
2019-03-18T14:13:01.340Z,52.41
2019-03-18T14:15:31.002Z,53.16
2019-03-18T14:18:00.913Z,53.59
2019-03-18T14:20:30.950Z,53.29
2019-03-18T14:23:00.639Z,53.35
2019-03-18T14:25:30.432Z,53.07
2019-03-18T14:28:00.216Z,53.35
2019-03-18T14:30:29.980Z,53.60
2019-03-18T14:32:59.636Z,53.20
2019-03-18T14:35:29.412Z,53.44
2019-03-18T14:37:59.220Z,54.22
2019-03-18T14:40:28.937Z,54.52
2019-03-18T14:42:58.631Z,54.98
2019-03-18T14:45:28.558Z,54.61
2019-03-18T14:47:58.251Z,54.40
2019-03-18T14:50:27.885Z,53.32
2019-03-18T14:52:57.697Z,51.73
2019-03-18T14:55:27.398Z,50.27
2019-03-18T14:57:57.080Z,49.31
2019-03-18T15:00:28.906Z,48.45
2019-03-18T15:02:58.697Z,47.40
2019-03-18T15:05:28.484Z,47.75
2019-03-18T15:07:58.161Z,47.15
2019-03-18T15:10:30.819Z,47.77
2019-03-18T15:13:00.601Z,47.84
2019-03-18T15:15:30.390Z,47.56
2019-03-18T15:18:00.208Z,48.05
2019-03-18T15:20:30.448Z,55.22
2019-03-18T15:23:00.153Z,57.31
2019-03-18T15:25:36.192Z,59.00
2019-03-18T15:28:06.070Z,58.79
2019-03-18T15:30:35.789Z,58.46
2019-03-18T15:33:05.634Z,59.45
2019-03-18T15:35:35.273Z,59.31
2019-03-18T15:38:05.286Z,58.75
2019-03-18T15:40:34.990Z,58.11
2019-03-18T15:43:04.899Z,58.44
2019-03-18T15:45:34.655Z,58.74
2019-03-18T15:48:04.435Z,59.60
2019-03-18T15:50:34.166Z,60.08
2019-03-18T15:53:03.817Z,60.05
2019-03-18T15:55:33.526Z,59.49
2019-03-18T15:58:03.268Z,59.55
2019-03-18T16:00:34.856Z,58.93
2019-03-18T16:03:04.593Z,59.27
2019-03-18T16:05:34.689Z,58.94
2019-03-18T16:08:04.473Z,58.56
2019-03-18T16:10:34.221Z,58.50
2019-03-18T16:13:03.874Z,58.71
2019-03-18T16:15:33.683Z,58.18
2019-03-18T16:18:03.398Z,57.82
2019-03-18T16:20:34.130Z,57.20
2019-03-18T16:23:03.949Z,57.52
2019-03-18T16:25:33.700Z,57.21
2019-03-18T16:28:03.591Z,57.28
2019-03-18T16:30:33.401Z,57.73
2019-03-18T16:33:03.296Z,57.90
2019-03-18T16:35:32.966Z,58.38
2019-03-18T16:38:02.691Z,57.86
2019-03-18T16:40:32.402Z,57.74
2019-03-18T16:43:02.141Z,58.19
2019-03-18T16:45:31.827Z,58.19
2019-03-18T16:48:01.503Z,56.81
2019-03-18T16:50:32.443Z,56.49
2019-03-18T16:53:02.072Z,56.52
2019-03-18T16:55:31.809Z,56.51
2019-03-18T16:58:01.537Z,56.86
2019-03-18T17:00:31.290Z,56.66
2019-03-18T17:03:01.103Z,56.72
2019-03-18T17:05:30.781Z,56.68
2019-03-18T17:08:00.484Z,56.93
2019-03-18T17:10:30.128Z,57.19
2019-03-18T17:13:00.089Z,57.16
2019-03-18T17:15:29.896Z,55.38
2019-03-18T17:17:59.612Z,54.86
2019-03-18T17:20:29.237Z,55.33
2019-03-18T17:22:59.011Z,54.44
2019-03-18T17:25:33.541Z,54.70
2019-03-18T17:28:03.306Z,54.73
2019-03-18T17:30:33.081Z,55.79
2019-03-18T17:33:02.739Z,55.89
2019-03-18T17:35:32.431Z,55.32
2019-03-18T17:38:02.146Z,55.82
2019-03-18T17:40:31.850Z,55.43
2019-03-18T17:43:01.560Z,56.27
2019-03-18T17:45:31.252Z,56.70
2019-03-18T17:48:00.902Z,56.79
2019-03-18T17:50:31.795Z,57.11
2019-03-18T17:53:03.860Z,57.61
2019-03-18T17:55:33.214Z,57.50
2019-03-18T17:58:02.985Z,57.57
2019-03-18T18:00:37.340Z,57.42
2019-03-18T18:03:07.138Z,57.50
2019-03-18T18:05:36.826Z,57.89
2019-03-18T18:08:06.549Z,58.62
2019-03-18T18:10:36.263Z,58.77
2019-03-18T18:13:06.257Z,58.86
2019-03-18T18:15:36.038Z,58.87
2019-03-18T18:18:06.015Z,59.16
2019-03-18T18:20:37.759Z,59.10
2019-03-18T18:23:14.376Z,59.54
2019-03-18T18:25:38.537Z,59.45
2019-03-18T18:28:08.303Z,59.90
2019-03-18T18:30:38.121Z,57.98
2019-03-18T18:33:08.247Z,58.88
2019-03-18T18:35:39.190Z,59.45
2019-03-18T18:38:08.991Z,58.81
2019-03-18T18:40:38.748Z,58.77
2019-03-18T18:43:08.488Z,58.48
2019-03-18T18:45:38.270Z,57.70
2019-03-18T18:48:08.062Z,57.88
2019-03-18T18:50:37.715Z,58.03
2019-03-18T18:53:07.599Z,58.64
2019-03-18T18:55:37.369Z,58.92
2019-03-18T18:58:07.097Z,58.73
2019-03-18T19:00:36.868Z,59.20
2019-03-18T19:03:06.572Z,59.62
2019-03-18T19:05:36.298Z,59.51
2019-03-18T19:08:06.038Z,59.90
2019-03-18T19:10:35.738Z,60.35
2019-03-18T19:13:05.537Z,60.11
2019-03-18T19:15:43.534Z,60.49
2019-03-18T19:18:13.285Z,60.79
2019-03-18T19:20:43.030Z,61.14
2019-03-18T19:23:12.919Z,61.19
2019-03-18T19:25:42.585Z,61.83
2019-03-18T19:28:14.333Z,61.77
2019-03-18T19:30:43.780Z,62.43
2019-03-18T19:33:13.615Z,62.15
2019-03-18T19:35:43.433Z,63.47
2019-03-18T19:38:13.230Z,62.25
2019-03-18T19:40:43.291Z,61.26
2019-03-18T19:43:12.950Z,61.95
2019-03-18T19:45:42.616Z,62.42
2019-03-18T19:48:12.376Z,62.21
2019-03-18T19:50:42.081Z,62.74
2019-03-18T19:53:11.920Z,62.60
2019-03-18T19:55:41.749Z,63.16
2019-03-18T19:58:11.751Z,63.49
2019-03-18T20:00:41.523Z,63.25
2019-03-18T20:03:11.234Z,63.53
2019-03-18T20:05:41.023Z,63.71
2019-03-18T20:08:10.689Z,63.20
2019-03-18T20:10:40.448Z,63.77
2019-03-18T20:13:10.113Z,65.03
2019-03-18T20:15:39.951Z,64.39
2019-03-18T20:18:10.072Z,64.16
2019-03-18T20:20:39.747Z,63.88
2019-03-18T20:23:09.396Z,64.56
2019-03-18T20:25:39.100Z,64.59
2019-03-18T20:28:08.765Z,64.88
2019-03-18T20:30:38.627Z,64.44
2019-03-18T20:33:08.294Z,64.73
2019-03-18T20:35:38.037Z,64.74
2019-03-18T20:38:07.728Z,64.41
2019-03-18T20:40:37.697Z,64.55
2019-03-18T20:43:07.641Z,64.71
2019-03-18T20:45:37.304Z,64.58
2019-03-18T20:48:07.126Z,64.74
2019-03-18T20:50:36.977Z,65.15
2019-03-18T20:53:06.857Z,65.13
2019-03-18T20:55:36.536Z,65.43
2019-03-18T20:58:06.374Z,65.08
2019-03-18T21:00:36.193Z,65.60
2019-03-18T21:03:06.453Z,65.69
2019-03-18T21:05:36.149Z,65.70
2019-03-18T21:08:06.209Z,65.29
2019-03-18T21:10:35.959Z,65.47
2019-03-18T21:13:05.768Z,65.67
2019-03-18T21:15:35.553Z,65.75
2019-03-18T21:18:05.339Z,66.20
2019-03-18T21:20:35.050Z,66.45
2019-03-18T21:23:04.906Z,66.51
2019-03-18T21:25:34.648Z,66.86
2019-03-18T21:28:04.462Z,66.81
2019-03-18T21:30:34.270Z,67.16
2019-03-18T21:33:04.097Z,67.28
2019-03-18T21:35:33.940Z,67.71
2019-03-18T21:38:03.666Z,67.91
2019-03-18T21:40:33.312Z,67.84
2019-03-18T21:43:03.168Z,67.63
2019-03-18T21:45:32.962Z,67.86
2019-03-18T21:48:02.735Z,67.28
2019-03-18T21:50:32.488Z,67.63
2019-03-18T21:53:02.162Z,67.66
2019-03-18T21:55:31.880Z,67.91
2019-03-18T21:58:01.663Z,67.59
2019-03-18T22:00:31.407Z,67.64
2019-03-18T22:03:01.185Z,67.86
2019-03-18T22:05:30.868Z,67.81
2019-03-18T22:08:00.564Z,68.04
2019-03-18T22:10:30.210Z,67.80
2019-03-18T22:12:59.987Z,67.65
2019-03-18T22:15:29.709Z,68.09
2019-03-18T22:17:59.493Z,68.05
2019-03-18T22:20:29.216Z,68.07
2019-03-18T22:22:58.925Z,68.04
2019-03-18T22:25:28.835Z,67.93
2019-03-18T22:27:58.549Z,68.64
2019-03-18T22:30:28.333Z,68.51
2019-03-18T22:32:58.158Z,68.58
2019-03-18T22:35:27.930Z,68.85
2019-03-18T22:37:57.607Z,69.08
2019-03-18T22:40:27.711Z,69.05
2019-03-18T22:42:57.384Z,69.08
2019-03-18T22:45:27.114Z,69.23
2019-03-18T22:47:56.830Z,69.37
2019-03-18T22:50:26.646Z,69.44
2019-03-18T22:52:56.320Z,69.32
2019-03-18T22:55:26.147Z,69.42
2019-03-18T22:57:55.806Z,70.42
2019-03-18T23:00:25.518Z,70.68
2019-03-18T23:02:55.385Z,70.68
2019-03-18T23:05:25.423Z,70.66
2019-03-18T23:07:55.091Z,70.66
2019-03-18T23:10:24.877Z,70.90
2019-03-18T23:12:54.549Z,71.08
2019-03-18T23:15:25.337Z,70.74
2019-03-18T23:17:55.124Z,70.60
2019-03-18T23:20:24.896Z,70.09
2019-03-18T23:22:54.675Z,70.49
2019-03-18T23:25:24.460Z,70.20
2019-03-18T23:27:54.229Z,70.26
2019-03-18T23:30:23.895Z,70.65
2019-03-18T23:32:53.585Z,70.77
2019-03-18T23:35:23.430Z,70.96
2019-03-18T23:37:53.189Z,71.16
2019-03-18T23:40:22.832Z,71.36
2019-03-18T23:42:52.622Z,71.70
2019-03-18T23:45:22.377Z,71.82
2019-03-18T23:47:52.928Z,71.81
2019-03-18T23:50:22.646Z,71.86
2019-03-18T23:52:52.379Z,72.08
2019-03-18T23:55:22.100Z,72.16
2019-03-18T23:57:54.196Z,72.35
